sensor_id;sensor_type;location;lat;lon;timestamp;temperature;humidity
27492;DHT22;14927;51.210;6.838;2023-07-29T00:01:55;24.00;72.70
27492;DHT22;14927;51.210;6.838;2023-07-29T00:04:40;23.90;72.70
27492;DHT22;14927;51.210;6.838;2023-07-29T00:07:25;23.90;72.70
27492;DHT22;14927;51.210;6.838;2023-07-29T00:10:10;23.90;72.80
27492;DHT22;14927;51.210;6.838;2023-07-29T00:12:54;23.90;72.90
27492;DHT22;14927;51.210;6.838;2023-07-29T00:15:39;23.90;73.00
27492;DHT22;14927;51.210;6.838;2023-07-29T00:18:24;23.90;73.00
27492;DHT22;14927;51.210;6.838;2023-07-29T00:21:08;23.90;73.00
27492;DHT22;14927;51.210;6.838;2023-07-29T00:23:53;23.90;73.00
27492;DHT22;14927;51.210;6.838;2023-07-29T00:26:38;23.90;73.00
27492;DHT22;14927;51.210;6.838;2023-07-29T00:29:23;23.80;72.90
27492;DHT22;14927;51.210;6.838;2023-07-29T00:32:07;23.90;73.00
27492;DHT22;14927;51.210;6.838;2023-07-29T00:34:52;23.90;73.00
27492;DHT22;14927;51.210;6.838;2023-07-29T00:37:37;23.90;73.00
27492;DHT22;14927;51.210;6.838;2023-07-29T00:40:22;23.80;72.90
27492;DHT22;14927;51.210;6.838;2023-07-29T00:43:07;23.80;72.90
27492;DHT22;14927;51.210;6.838;2023-07-29T00:45:52;23.80;72.80
27492;DHT22;14927;51.210;6.838;2023-07-29T00:48:37;23.80;72.80
27492;DHT22;14927;51.210;6.838;2023-07-29T00:51:21;23.80;72.70
27492;DHT22;14927;51.210;6.838;2023-07-29T00:54:06;23.80;72.80
27492;DHT22;14927;51.210;6.838;2023-07-29T00:56:51;23.70;72.70
27492;DHT22;14927;51.210;6.838;2023-07-29T00:59:36;23.70;72.70
27492;DHT22;14927;51.210;6.838;2023-07-29T01:02:21;23.70;72.70
27492;DHT22;14927;51.210;6.838;2023-07-29T01:05:06;23.70;72.70
27492;DHT22;14927;51.210;6.838;2023-07-29T01:07:52;23.70;72.80
27492;DHT22;14927;51.210;6.838;2023-07-29T01:10:54;23.60;72.80
27492;DHT22;14927;51.210;6.838;2023-07-29T01:13:50;23.60;73.10
27492;DHT22;14927;51.210;6.838;2023-07-29T01:16:41;23.60;73.00
27492;DHT22;14927;51.210;6.838;2023-07-29T01:22:50;23.50;73.10
27492;DHT22;14927;51.210;6.838;2023-07-29T01:25:36;23.50;72.90
27492;DHT22;14927;51.210;6.838;2023-07-29T01:28:21;23.50;72.90
27492;DHT22;14927;51.210;6.838;2023-07-29T01:31:37;23.50;73.70
27492;DHT22;14927;51.210;6.838;2023-07-29T01:34:45;23.50;73.60
27492;DHT22;14927;51.210;6.838;2023-07-29T01:37:54;23.40;73.40
27492;DHT22;14927;51.210;6.838;2023-07-29T01:40:41;23.40;73.20
27492;DHT22;14927;51.210;6.838;2023-07-29T01:43:30;23.40;73.30
27492;DHT22;14927;51.210;6.838;2023-07-29T01:46:16;23.40;73.50
27492;DHT22;14927;51.210;6.838;2023-07-29T01:49:00;23.40;73.50
27492;DHT22;14927;51.210;6.838;2023-07-29T01:51:45;23.40;73.60
27492;DHT22;14927;51.210;6.838;2023-07-29T01:54:30;23.40;73.70
27492;DHT22;14927;51.210;6.838;2023-07-29T01:57:14;23.40;73.70
27492;DHT22;14927;51.210;6.838;2023-07-29T01:59:59;23.40;73.70
27492;DHT22;14927;51.210;6.838;2023-07-29T02:02:44;23.40;73.70
27492;DHT22;14927;51.210;6.838;2023-07-29T02:05:28;23.40;73.80
27492;DHT22;14927;51.210;6.838;2023-07-29T02:08:13;23.40;73.80
27492;DHT22;14927;51.210;6.838;2023-07-29T02:10:58;23.30;73.70
27492;DHT22;14927;51.210;6.838;2023-07-29T02:13:43;23.30;73.80
27492;DHT22;14927;51.210;6.838;2023-07-29T02:16:28;23.30;73.80
27492;DHT22;14927;51.210;6.838;2023-07-29T02:19:13;23.30;73.80
27492;DHT22;14927;51.210;6.838;2023-07-29T02:21:57;23.30;73.80
27492;DHT22;14927;51.210;6.838;2023-07-29T02:24:42;23.30;73.80
27492;DHT22;14927;51.210;6.838;2023-07-29T02:27:27;23.30;73.90
27492;DHT22;14927;51.210;6.838;2023-07-29T02:30:12;23.30;73.80
27492;DHT22;14927;51.210;6.838;2023-07-29T02:32:57;23.30;73.90
27492;DHT22;14927;51.210;6.838;2023-07-29T02:35:41;23.30;74.00
27492;DHT22;14927;51.210;6.838;2023-07-29T02:38:26;23.30;74.00
27492;DHT22;14927;51.210;6.838;2023-07-29T02:41:11;23.30;74.00
27492;DHT22;14927;51.210;6.838;2023-07-29T02:44:01;23.40;74.20
27492;DHT22;14927;51.210;6.838;2023-07-29T02:46:45;23.30;74.20
27492;DHT22;14927;51.210;6.838;2023-07-29T02:49:30;23.30;74.30
27492;DHT22;14927;51.210;6.838;2023-07-29T02:52:15;23.30;74.30
27492;DHT22;14927;51.210;6.838;2023-07-29T02:55:00;23.30;74.30
27492;DHT22;14927;51.210;6.838;2023-07-29T02:57:44;23.30;74.30
27492;DHT22;14927;51.210;6.838;2023-07-29T03:00:31;23.30;74.30
27492;DHT22;14927;51.210;6.838;2023-07-29T03:03:17;23.30;74.50
27492;DHT22;14927;51.210;6.838;2023-07-29T03:06:08;23.30;75.30
27492;DHT22;14927;51.210;6.838;2023-07-29T03:08:53;23.30;74.60
27492;DHT22;14927;51.210;6.838;2023-07-29T03:11:38;23.30;74.50
27492;DHT22;14927;51.210;6.838;2023-07-29T03:14:23;23.30;74.50
27492;DHT22;14927;51.210;6.838;2023-07-29T03:17:07;23.30;74.50
27492;DHT22;14927;51.210;6.838;2023-07-29T03:19:52;23.30;74.50
27492;DHT22;14927;51.210;6.838;2023-07-29T03:22:36;23.30;74.50
27492;DHT22;14927;51.210;6.838;2023-07-29T03:25:21;23.30;74.50
27492;DHT22;14927;51.210;6.838;2023-07-29T03:28:06;23.30;74.50
27492;DHT22;14927;51.210;6.838;2023-07-29T03:30:50;23.30;74.50
27492;DHT22;14927;51.210;6.838;2023-07-29T03:33:35;23.30;74.40
27492;DHT22;14927;51.210;6.838;2023-07-29T03:36:21;23.30;74.40
27492;DHT22;14927;51.210;6.838;2023-07-29T03:39:05;23.30;74.40
27492;DHT22;14927;51.210;6.838;2023-07-29T03:41:52;23.30;74.40
27492;DHT22;14927;51.210;6.838;2023-07-29T03:44:36;23.30;74.30
27492;DHT22;14927;51.210;6.838;2023-07-29T03:47:23;23.30;74.40
27492;DHT22;14927;51.210;6.838;2023-07-29T03:50:08;23.30;74.50
27492;DHT22;14927;51.210;6.838;2023-07-29T03:52:52;23.30;74.50
27492;DHT22;14927;51.210;6.838;2023-07-29T03:55:37;23.30;74.60
27492;DHT22;14927;51.210;6.838;2023-07-29T03:58:22;23.30;74.60
27492;DHT22;14927;51.210;6.838;2023-07-29T04:01:06;23.30;74.80
27492;DHT22;14927;51.210;6.838;2023-07-29T04:03:51;23.30;74.80
27492;DHT22;14927;51.210;6.838;2023-07-29T04:06:36;23.30;74.80
27492;DHT22;14927;51.210;6.838;2023-07-29T04:09:21;23.30;74.80
27492;DHT22;14927;51.210;6.838;2023-07-29T04:12:05;23.30;74.80
27492;DHT22;14927;51.210;6.838;2023-07-29T04:14:50;23.20;74.70
27492;DHT22;14927;51.210;6.838;2023-07-29T04:17:35;23.20;74.70
27492;DHT22;14927;51.210;6.838;2023-07-29T04:20:19;23.20;74.70
27492;DHT22;14927;51.210;6.838;2023-07-29T04:23:04;23.30;74.80
27492;DHT22;14927;51.210;6.838;2023-07-29T04:25:49;23.30;74.80
27492;DHT22;14927;51.210;6.838;2023-07-29T04:28:33;23.30;74.70
27492;DHT22;14927;51.210;6.838;2023-07-29T04:31:18;23.30;74.70
27492;DHT22;14927;51.210;6.838;2023-07-29T04:34:04;23.30;74.70
27492;DHT22;14927;51.210;6.838;2023-07-29T04:36:49;23.30;74.70
27492;DHT22;14927;51.210;6.838;2023-07-29T04:39:34;23.30;74.70
27492;DHT22;14927;51.210;6.838;2023-07-29T04:42:18;23.30;74.60
27492;DHT22;14927;51.210;6.838;2023-07-29T04:45:03;23.20;74.50
27492;DHT22;14927;51.210;6.838;2023-07-29T04:47:48;23.30;74.60
27492;DHT22;14927;51.210;6.838;2023-07-29T04:50:33;23.30;74.50
27492;DHT22;14927;51.210;6.838;2023-07-29T04:53:18;23.20;74.40
27492;DHT22;14927;51.210;6.838;2023-07-29T04:56:03;23.20;74.30
27492;DHT22;14927;51.210;6.838;2023-07-29T04:58:47;23.00;74.10
27492;DHT22;14927;51.210;6.838;2023-07-29T05:01:32;23.20;75.00
27492;DHT22;14927;51.210;6.838;2023-07-29T05:04:17;23.20;74.30
27492;DHT22;14927;51.210;6.838;2023-07-29T05:07:02;23.20;74.30
27492;DHT22;14927;51.210;6.838;2023-07-29T05:09:47;23.20;74.30
27492;DHT22;14927;51.210;6.838;2023-07-29T05:12:32;23.20;74.10
27492;DHT22;14927;51.210;6.838;2023-07-29T05:15:17;23.20;74.10
27492;DHT22;14927;51.210;6.838;2023-07-29T05:18:02;23.10;74.00
27492;DHT22;14927;51.210;6.838;2023-07-29T05:20:49;23.10;73.90
27492;DHT22;14927;51.210;6.838;2023-07-29T05:23:34;23.20;73.90
27492;DHT22;14927;51.210;6.838;2023-07-29T05:26:18;23.10;73.80
27492;DHT22;14927;51.210;6.838;2023-07-29T05:29:03;23.10;73.80
27492;DHT22;14927;51.210;6.838;2023-07-29T05:31:49;23.20;73.90
27492;DHT22;14927;51.210;6.838;2023-07-29T05:34:36;23.10;73.90
27492;DHT22;14927;51.210;6.838;2023-07-29T05:37:20;23.10;73.90
27492;DHT22;14927;51.210;6.838;2023-07-29T05:40:06;23.20;74.00
27492;DHT22;14927;51.210;6.838;2023-07-29T05:42:55;23.20;74.10
27492;DHT22;14927;51.210;6.838;2023-07-29T05:45:40;23.20;74.60
27492;DHT22;14927;51.210;6.838;2023-07-29T05:48:25;23.20;73.70
27492;DHT22;14927;51.210;6.838;2023-07-29T05:51:10;23.20;73.70
27492;DHT22;14927;51.210;6.838;2023-07-29T05:53:55;23.20;73.70
27492;DHT22;14927;51.210;6.838;2023-07-29T05:56:40;23.20;73.60
27492;DHT22;14927;51.210;6.838;2023-07-29T05:59:27;23.20;73.70
27492;DHT22;14927;51.210;6.838;2023-07-29T06:02:13;23.10;73.50
27492;DHT22;14927;51.210;6.838;2023-07-29T06:04:58;23.20;73.30
27492;DHT22;14927;51.210;6.838;2023-07-29T06:07:43;23.20;72.60
27492;DHT22;14927;51.210;6.838;2023-07-29T06:10:28;23.20;72.00
27492;DHT22;14927;51.210;6.838;2023-07-29T06:13:14;23.20;71.50
27492;DHT22;14927;51.210;6.838;2023-07-29T06:15:58;23.10;71.20
27492;DHT22;14927;51.210;6.838;2023-07-29T06:18:49;23.20;70.90
27492;DHT22;14927;51.210;6.838;2023-07-29T06:21:34;23.10;70.60
27492;DHT22;14927;51.210;6.838;2023-07-29T06:24:19;23.10;70.70
27492;DHT22;14927;51.210;6.838;2023-07-29T06:27:04;23.10;70.90
27492;DHT22;14927;51.210;6.838;2023-07-29T06:29:49;22.90;70.60
27492;DHT22;14927;51.210;6.838;2023-07-29T06:32:34;23.10;70.50
27492;DHT22;14927;51.210;6.838;2023-07-29T06:35:19;23.10;70.10
27492;DHT22;14927;51.210;6.838;2023-07-29T06:38:04;23.10;69.90
27492;DHT22;14927;51.210;6.838;2023-07-29T06:40:49;23.10;69.40
27492;DHT22;14927;51.210;6.838;2023-07-29T06:43:33;23.00;68.80
27492;DHT22;14927;51.210;6.838;2023-07-29T06:46:18;23.10;68.60
27492;DHT22;14927;51.210;6.838;2023-07-29T06:49:03;23.10;68.20
27492;DHT22;14927;51.210;6.838;2023-07-29T06:51:52;23.00;67.70
27492;DHT22;14927;51.210;6.838;2023-07-29T06:54:37;23.00;67.70
27492;DHT22;14927;51.210;6.838;2023-07-29T06:57:22;23.00;67.70
27492;DHT22;14927;51.210;6.838;2023-07-29T07:00:07;23.00;67.60
27492;DHT22;14927;51.210;6.838;2023-07-29T07:02:53;23.00;67.40
27492;DHT22;14927;51.210;6.838;2023-07-29T07:05:38;23.00;67.60
27492;DHT22;14927;51.210;6.838;2023-07-29T07:08:22;23.00;68.00
27492;DHT22;14927;51.210;6.838;2023-07-29T07:11:07;23.00;68.40
27492;DHT22;14927;51.210;6.838;2023-07-29T07:13:52;23.00;68.60
27492;DHT22;14927;51.210;6.838;2023-07-29T07:16:36;23.00;68.50
27492;DHT22;14927;51.210;6.838;2023-07-29T07:19:23;23.00;68.50
27492;DHT22;14927;51.210;6.838;2023-07-29T07:22:08;23.00;68.50
27492;DHT22;14927;51.210;6.838;2023-07-29T07:24:52;23.10;68.50
27492;DHT22;14927;51.210;6.838;2023-07-29T07:27:37;23.10;68.60
27492;DHT22;14927;51.210;6.838;2023-07-29T07:30:21;23.10;68.60
27492;DHT22;14927;51.210;6.838;2023-07-29T07:33:06;23.10;68.40
27492;DHT22;14927;51.210;6.838;2023-07-29T07:35:51;23.10;68.30
27492;DHT22;14927;51.210;6.838;2023-07-29T07:38:35;23.10;68.30
27492;DHT22;14927;51.210;6.838;2023-07-29T07:41:21;23.10;68.10
27492;DHT22;14927;51.210;6.838;2023-07-29T07:44:05;23.20;67.80
27492;DHT22;14927;51.210;6.838;2023-07-29T07:46:50;23.20;68.50
27492;DHT22;14927;51.210;6.838;2023-07-29T07:49:35;23.30;67.60
27492;DHT22;14927;51.210;6.838;2023-07-29T07:52:19;23.30;67.20
27492;DHT22;14927;51.210;6.838;2023-07-29T07:55:04;23.30;67.10
27492;DHT22;14927;51.210;6.838;2023-07-29T07:57:49;23.40;66.70
27492;DHT22;14927;51.210;6.838;2023-07-29T08:00:33;23.40;65.90
27492;DHT22;14927;51.210;6.838;2023-07-29T08:03:18;23.40;65.90
27492;DHT22;14927;51.210;6.838;2023-07-29T08:06:03;23.40;65.70
27492;DHT22;14927;51.210;6.838;2023-07-29T08:08:48;23.40;65.40
27492;DHT22;14927;51.210;6.838;2023-07-29T08:11:33;23.50;65.20
27492;DHT22;14927;51.210;6.838;2023-07-29T08:14:17;23.50;64.80
27492;DHT22;14927;51.210;6.838;2023-07-29T08:17:02;23.60;64.40
27492;DHT22;14927;51.210;6.838;2023-07-29T08:19:47;23.60;63.80
27492;DHT22;14927;51.210;6.838;2023-07-29T08:22:32;23.70;63.60
27492;DHT22;14927;51.210;6.838;2023-07-29T08:25:16;23.60;63.50
27492;DHT22;14927;51.210;6.838;2023-07-29T08:28:01;23.70;63.00
27492;DHT22;14927;51.210;6.838;2023-07-29T08:30:45;23.70;62.50
27492;DHT22;14927;51.210;6.838;2023-07-29T08:33:31;23.80;62.60
27492;DHT22;14927;51.210;6.838;2023-07-29T08:36:17;23.90;63.30
27492;DHT22;14927;51.210;6.838;2023-07-29T08:39:03;23.90;62.10
27492;DHT22;14927;51.210;6.838;2023-07-29T08:41:56;23.90;61.50
27492;DHT22;14927;51.210;6.838;2023-07-29T08:44:43;24.00;61.00
27492;DHT22;14927;51.210;6.838;2023-07-29T08:47:28;24.00;61.00
27492;DHT22;14927;51.210;6.838;2023-07-29T08:50:13;24.00;60.70
27492;DHT22;14927;51.210;6.838;2023-07-29T08:53:00;24.00;60.00
27492;DHT22;14927;51.210;6.838;2023-07-29T08:55:50;24.10;59.80
27492;DHT22;14927;51.210;6.838;2023-07-29T08:58:35;24.10;59.70
27492;DHT22;14927;51.210;6.838;2023-07-29T09:01:20;24.20;59.60
27492;DHT22;14927;51.210;6.838;2023-07-29T09:04:05;24.20;59.80
27492;DHT22;14927;51.210;6.838;2023-07-29T09:06:50;24.30;59.50
27492;DHT22;14927;51.210;6.838;2023-07-29T09:09:36;24.40;59.20
27492;DHT22;14927;51.210;6.838;2023-07-29T09:12:20;24.40;59.10
27492;DHT22;14927;51.210;6.838;2023-07-29T09:15:05;24.50;59.00
27492;DHT22;14927;51.210;6.838;2023-07-29T09:17:50;24.50;58.50
27492;DHT22;14927;51.210;6.838;2023-07-29T09:20:35;24.60;58.30
27492;DHT22;14927;51.210;6.838;2023-07-29T09:23:19;24.60;58.20
27492;DHT22;14927;51.210;6.838;2023-07-29T09:26:04;24.60;58.10
27492;DHT22;14927;51.210;6.838;2023-07-29T09:28:56;24.60;58.00
27492;DHT22;14927;51.210;6.838;2023-07-29T09:31:41;24.70;58.20
27492;DHT22;14927;51.210;6.838;2023-07-29T09:34:25;24.70;57.90
27492;DHT22;14927;51.210;6.838;2023-07-29T09:37:21;24.80;57.90
27492;DHT22;14927;51.210;6.838;2023-07-29T09:40:14;24.80;57.50
27492;DHT22;14927;51.210;6.838;2023-07-29T09:43:00;24.80;57.30
27492;DHT22;14927;51.210;6.838;2023-07-29T09:45:46;24.90;57.60
27492;DHT22;14927;51.210;6.838;2023-07-29T09:48:35;24.90;57.60
27492;DHT22;14927;51.210;6.838;2023-07-29T09:51:21;24.90;57.00
27492;DHT22;14927;51.210;6.838;2023-07-29T09:54:06;24.90;57.10
27492;DHT22;14927;51.210;6.838;2023-07-29T09:56:51;25.00;57.20
27492;DHT22;14927;51.210;6.838;2023-07-29T09:59:36;25.00;57.00
27492;DHT22;14927;51.210;6.838;2023-07-29T10:02:21;25.00;57.50
27492;DHT22;14927;51.210;6.838;2023-07-29T10:05:07;25.00;56.80
27492;DHT22;14927;51.210;6.838;2023-07-29T10:07:54;25.00;56.90
27492;DHT22;14927;51.210;6.838;2023-07-29T10:10:42;25.00;56.60
27492;DHT22;14927;51.210;6.838;2023-07-29T10:13:27;25.00;56.40
27492;DHT22;14927;51.210;6.838;2023-07-29T10:16:12;25.10;56.70
27492;DHT22;14927;51.210;6.838;2023-07-29T10:18:57;25.20;56.90
27492;DHT22;14927;51.210;6.838;2023-07-29T10:21:44;25.20;56.90
27492;DHT22;14927;51.210;6.838;2023-07-29T10:24:33;25.30;57.00
27492;DHT22;14927;51.210;6.838;2023-07-29T10:27:18;25.30;56.90
27492;DHT22;14927;51.210;6.838;2023-07-29T10:30:03;25.40;56.50
27492;DHT22;14927;51.210;6.838;2023-07-29T10:32:49;25.40;56.40
27492;DHT22;14927;51.210;6.838;2023-07-29T10:35:34;25.50;56.20
27492;DHT22;14927;51.210;6.838;2023-07-29T10:38:21;25.60;56.00
27492;DHT22;14927;51.210;6.838;2023-07-29T10:41:06;25.60;55.70
27492;DHT22;14927;51.210;6.838;2023-07-29T10:43:51;25.60;55.50
27492;DHT22;14927;51.210;6.838;2023-07-29T10:46:36;25.60;55.40
27492;DHT22;14927;51.210;6.838;2023-07-29T10:49:23;25.60;55.40
27492;DHT22;14927;51.210;6.838;2023-07-29T10:52:08;25.60;55.00
27492;DHT22;14927;51.210;6.838;2023-07-29T10:54:52;25.60;54.90
27492;DHT22;14927;51.210;6.838;2023-07-29T10:57:39;25.60;55.20
27492;DHT22;14927;51.210;6.838;2023-07-29T11:00:30;25.60;55.30
27492;DHT22;14927;51.210;6.838;2023-07-29T11:03:15;25.70;55.40
27492;DHT22;14927;51.210;6.838;2023-07-29T11:06:04;25.70;55.70
27492;DHT22;14927;51.210;6.838;2023-07-29T11:08:49;25.80;55.40
27492;DHT22;14927;51.210;6.838;2023-07-29T11:11:34;25.80;55.40
27492;DHT22;14927;51.210;6.838;2023-07-29T11:14:24;25.90;55.50
27492;DHT22;14927;51.210;6.838;2023-07-29T11:17:09;26.00;54.90
27492;DHT22;14927;51.210;6.838;2023-07-29T11:19:54;26.10;54.50
27492;DHT22;14927;51.210;6.838;2023-07-29T11:22:40;26.20;54.00
27492;DHT22;14927;51.210;6.838;2023-07-29T11:25:26;26.30;53.50
27492;DHT22;14927;51.210;6.838;2023-07-29T11:28:11;26.40;53.60
27492;DHT22;14927;51.210;6.838;2023-07-29T11:30:57;26.40;53.50
27492;DHT22;14927;51.210;6.838;2023-07-29T11:33:42;26.50;53.30
27492;DHT22;14927;51.210;6.838;2023-07-29T11:36:26;26.50;53.10
27492;DHT22;14927;51.210;6.838;2023-07-29T11:39:11;26.50;52.90
27492;DHT22;14927;51.210;6.838;2023-07-29T11:41:56;26.50;53.10
27492;DHT22;14927;51.210;6.838;2023-07-29T11:44:41;26.40;52.90
27492;DHT22;14927;51.210;6.838;2023-07-29T11:47:25;26.40;53.10
27492;DHT22;14927;51.210;6.838;2023-07-29T11:50:11;26.50;53.30
27492;DHT22;14927;51.210;6.838;2023-07-29T11:53:00;26.50;53.00
27492;DHT22;14927;51.210;6.838;2023-07-29T11:55:50;26.50;53.10
27492;DHT22;14927;51.210;6.838;2023-07-29T11:58:37;26.50;52.40
27492;DHT22;14927;51.210;6.838;2023-07-29T12:01:22;26.50;52.70
27492;DHT22;14927;51.210;6.838;2023-07-29T12:04:07;26.60;52.80
27492;DHT22;14927;51.210;6.838;2023-07-29T12:06:51;26.60;52.70
27492;DHT22;14927;51.210;6.838;2023-07-29T12:09:37;26.60;52.70
27492;DHT22;14927;51.210;6.838;2023-07-29T12:12:25;26.60;52.90
27492;DHT22;14927;51.210;6.838;2023-07-29T12:15:09;26.70;52.70
27492;DHT22;14927;51.210;6.838;2023-07-29T12:17:56;26.70;53.40
27492;DHT22;14927;51.210;6.838;2023-07-29T12:20:41;26.80;52.80
27492;DHT22;14927;51.210;6.838;2023-07-29T12:23:26;26.90;52.50
27492;DHT22;14927;51.210;6.838;2023-07-29T12:26:11;27.00;52.50
27492;DHT22;14927;51.210;6.838;2023-07-29T12:28:55;27.10;51.90
27492;DHT22;14927;51.210;6.838;2023-07-29T12:31:43;27.20;52.00
27492;DHT22;14927;51.210;6.838;2023-07-29T12:34:28;27.30;52.20
27492;DHT22;14927;51.210;6.838;2023-07-29T12:37:14;27.40;52.00
27492;DHT22;14927;51.210;6.838;2023-07-29T12:39:58;27.60;51.60
27492;DHT22;14927;51.210;6.838;2023-07-29T12:42:43;27.80;51.20
27492;DHT22;14927;51.210;6.838;2023-07-29T12:45:28;27.90;50.70
27492;DHT22;14927;51.210;6.838;2023-07-29T12:48:19;28.10;50.20
27492;DHT22;14927;51.210;6.838;2023-07-29T12:51:04;28.20;49.60
27492;DHT22;14927;51.210;6.838;2023-07-29T12:53:48;28.40;49.30
27492;DHT22;14927;51.210;6.838;2023-07-29T12:56:33;28.50;48.40
27492;DHT22;14927;51.210;6.838;2023-07-29T12:59:18;28.60;48.10
27492;DHT22;14927;51.210;6.838;2023-07-29T13:02:03;28.70;48.10
27492;DHT22;14927;51.210;6.838;2023-07-29T13:04:48;28.80;47.70
27492;DHT22;14927;51.210;6.838;2023-07-29T13:07:32;28.80;47.50
27492;DHT22;14927;51.210;6.838;2023-07-29T13:10:17;28.80;47.40
27492;DHT22;14927;51.210;6.838;2023-07-29T13:13:02;28.90;47.60
27492;DHT22;14927;51.210;6.838;2023-07-29T13:15:46;28.90;47.60
27492;DHT22;14927;51.210;6.838;2023-07-29T13:18:32;28.90;47.70
27492;DHT22;14927;51.210;6.838;2023-07-29T13:21:17;28.90;47.40
27492;DHT22;14927;51.210;6.838;2023-07-29T13:24:01;28.90;47.30
27492;DHT22;14927;51.210;6.838;2023-07-29T13:26:46;28.80;47.60
27492;DHT22;14927;51.210;6.838;2023-07-29T13:29:31;28.80;47.50
27492;DHT22;14927;51.210;6.838;2023-07-29T13:32:15;28.70;47.70
27492;DHT22;14927;51.210;6.838;2023-07-29T13:35:00;28.60;47.70
27492;DHT22;14927;51.210;6.838;2023-07-29T13:37:44;28.50;47.70
27492;DHT22;14927;51.210;6.838;2023-07-29T13:40:30;28.50;47.90
27492;DHT22;14927;51.210;6.838;2023-07-29T13:43:15;28.40;48.10
27492;DHT22;14927;51.210;6.838;2023-07-29T13:45:59;28.30;48.50
27492;DHT22;14927;51.210;6.838;2023-07-29T13:48:44;28.30;49.00
27492;DHT22;14927;51.210;6.838;2023-07-29T13:51:29;28.20;49.10
27492;DHT22;14927;51.210;6.838;2023-07-29T13:54:13;28.20;49.50
27492;DHT22;14927;51.210;6.838;2023-07-29T13:56:58;28.20;49.60
27492;DHT22;14927;51.210;6.838;2023-07-29T13:59:43;28.10;50.00
27492;DHT22;14927;51.210;6.838;2023-07-29T14:02:27;28.10;49.70
27492;DHT22;14927;51.210;6.838;2023-07-29T14:05:12;28.10;49.70
27492;DHT22;14927;51.210;6.838;2023-07-29T14:07:56;28.10;49.50
27492;DHT22;14927;51.210;6.838;2023-07-29T14:10:41;28.10;49.60
27492;DHT22;14927;51.210;6.838;2023-07-29T14:13:26;28.00;50.00
27492;DHT22;14927;51.210;6.838;2023-07-29T14:16:10;28.00;50.50
27492;DHT22;14927;51.210;6.838;2023-07-29T14:18:55;27.90;51.10
27492;DHT22;14927;51.210;6.838;2023-07-29T14:21:39;27.90;51.50
27492;DHT22;14927;51.210;6.838;2023-07-29T14:24:24;27.80;51.80
27492;DHT22;14927;51.210;6.838;2023-07-29T14:27:09;27.80;52.10
27492;DHT22;14927;51.210;6.838;2023-07-29T14:29:53;27.70;52.20
27492;DHT22;14927;51.210;6.838;2023-07-29T14:32:38;27.70;52.50
27492;DHT22;14927;51.210;6.838;2023-07-29T14:35:23;27.60;52.80
27492;DHT22;14927;51.210;6.838;2023-07-29T14:38:07;27.60;53.10
27492;DHT22;14927;51.210;6.838;2023-07-29T14:40:52;27.60;53.50
27492;DHT22;14927;51.210;6.838;2023-07-29T14:43:41;27.60;53.30
27492;DHT22;14927;51.210;6.838;2023-07-29T14:46:29;27.60;53.30
27492;DHT22;14927;51.210;6.838;2023-07-29T14:49:14;27.50;53.10
27492;DHT22;14927;51.210;6.838;2023-07-29T14:51:58;27.60;53.30
27492;DHT22;14927;51.210;6.838;2023-07-29T14:54:43;27.50;53.10
27492;DHT22;14927;51.210;6.838;2023-07-29T14:57:28;27.50;52.90
27492;DHT22;14927;51.210;6.838;2023-07-29T15:00:12;27.50;52.50
27492;DHT22;14927;51.210;6.838;2023-07-29T15:02:57;27.50;52.10
27492;DHT22;14927;51.210;6.838;2023-07-29T15:05:42;27.50;51.60
27492;DHT22;14927;51.210;6.838;2023-07-29T15:08:27;27.50;51.40
27492;DHT22;14927;51.210;6.838;2023-07-29T15:11:12;27.50;51.00
27492;DHT22;14927;51.210;6.838;2023-07-29T15:13:56;27.50;51.20
27492;DHT22;14927;51.210;6.838;2023-07-29T15:16:41;27.50;51.30
27492;DHT22;14927;51.210;6.838;2023-07-29T15:19:26;27.50;51.00
27492;DHT22;14927;51.210;6.838;2023-07-29T15:22:10;27.50;51.10
27492;DHT22;14927;51.210;6.838;2023-07-29T15:24:55;27.60;51.10
27492;DHT22;14927;51.210;6.838;2023-07-29T15:27:39;27.60;51.10
27492;DHT22;14927;51.210;6.838;2023-07-29T15:30:24;27.60;51.00
27492;DHT22;14927;51.210;6.838;2023-07-29T15:33:08;27.60;51.10
27492;DHT22;14927;51.210;6.838;2023-07-29T15:35:53;27.70;51.10
27492;DHT22;14927;51.210;6.838;2023-07-29T15:38:38;27.70;51.40
27492;DHT22;14927;51.210;6.838;2023-07-29T15:41:22;27.50;51.10
27492;DHT22;14927;51.210;6.838;2023-07-29T15:44:08;27.70;51.00
27492;DHT22;14927;51.210;6.838;2023-07-29T15:46:52;27.80;50.90
27492;DHT22;14927;51.210;6.838;2023-07-29T15:49:37;27.80;50.80
27492;DHT22;14927;51.210;6.838;2023-07-29T15:52:21;27.80;50.70
27492;DHT22;14927;51.210;6.838;2023-07-29T15:55:06;27.90;50.80
27492;DHT22;14927;51.210;6.838;2023-07-29T15:57:51;27.90;50.70
27492;DHT22;14927;51.210;6.838;2023-07-29T16:00:36;27.90;50.70
27492;DHT22;14927;51.210;6.838;2023-07-29T16:03:20;27.90;50.20
27492;DHT22;14927;51.210;6.838;2023-07-29T16:06:06;27.90;50.20
27492;DHT22;14927;51.210;6.838;2023-07-29T16:08:51;27.90;50.50
27492;DHT22;14927;51.210;6.838;2023-07-29T16:11:36;27.90;50.30
27492;DHT22;14927;51.210;6.838;2023-07-29T16:14:21;28.00;50.60
27492;DHT22;14927;51.210;6.838;2023-07-29T16:17:07;28.00;50.60
27492;DHT22;14927;51.210;6.838;2023-07-29T16:19:54;28.00;50.40
27492;DHT22;14927;51.210;6.838;2023-07-29T16:22:41;28.00;50.40
27492;DHT22;14927;51.210;6.838;2023-07-29T16:25:25;28.00;50.20
27492;DHT22;14927;51.210;6.838;2023-07-29T16:28:10;28.20;50.40
27492;DHT22;14927;51.210;6.838;2023-07-29T16:30:55;28.10;50.10
27492;DHT22;14927;51.210;6.838;2023-07-29T16:33:39;28.10;49.80
27492;DHT22;14927;51.210;6.838;2023-07-29T16:36:24;28.10;49.80
27492;DHT22;14927;51.210;6.838;2023-07-29T16:39:09;28.10;49.80
27492;DHT22;14927;51.210;6.838;2023-07-29T16:41:54;28.20;49.80
27492;DHT22;14927;51.210;6.838;2023-07-29T16:44:40;28.20;49.60
27492;DHT22;14927;51.210;6.838;2023-07-29T16:47:25;28.20;49.70
27492;DHT22;14927;51.210;6.838;2023-07-29T16:50:10;28.20;49.60
27492;DHT22;14927;51.210;6.838;2023-07-29T16:52:54;28.20;49.60
27492;DHT22;14927;51.210;6.838;2023-07-29T16:55:41;28.20;49.70
27492;DHT22;14927;51.210;6.838;2023-07-29T16:58:26;28.20;49.20
27492;DHT22;14927;51.210;6.838;2023-07-29T17:01:10;28.20;49.00
27492;DHT22;14927;51.210;6.838;2023-07-29T17:03:55;28.20;49.10
27492;DHT22;14927;51.210;6.838;2023-07-29T17:06:40;28.20;49.10
27492;DHT22;14927;51.210;6.838;2023-07-29T17:09:24;28.10;49.20
27492;DHT22;14927;51.210;6.838;2023-07-29T17:12:09;28.10;49.30
27492;DHT22;14927;51.210;6.838;2023-07-29T17:14:54;28.10;49.70
27492;DHT22;14927;51.210;6.838;2023-07-29T17:17:38;28.00;49.70
27492;DHT22;14927;51.210;6.838;2023-07-29T17:20:23;28.10;49.70
27492;DHT22;14927;51.210;6.838;2023-07-29T17:23:08;28.00;49.60
27492;DHT22;14927;51.210;6.838;2023-07-29T17:25:53;28.00;49.40
27492;DHT22;14927;51.210;6.838;2023-07-29T17:28:38;28.00;49.40